sensor_id;sensor_type;location;lat;lon;timestamp;P1;durP1;ratioP1;P2;durP2;ratioP2
11541;SDS011;5827;49.482;7.716;2023-05-08T00:00:24;5.90;;;5.30;;
11541;SDS011;5827;49.482;7.716;2023-05-08T00:02:26;6.13;;;5.47;;
11541;SDS011;5827;49.482;7.716;2023-05-08T00:04:27;5.30;;;4.80;;
11541;SDS011;5827;49.482;7.716;2023-05-08T00:06:29;5.70;;;5.10;;
11541;SDS011;5827;49.482;7.716;2023-05-08T00:08:30;8.00;;;4.93;;
11541;SDS011;5827;49.482;7.716;2023-05-08T00:10:32;6.60;;;5.10;;
11541;SDS011;5827;49.482;7.716;2023-05-08T00:12:35;6.30;;;5.13;;
11541;SDS011;5827;49.482;7.716;2023-05-08T00:14:37;7.53;;;5.00;;
11541;SDS011;5827;49.482;7.716;2023-05-08T00:16:38;8.97;;;5.33;;
11541;SDS011;5827;49.482;7.716;2023-05-08T00:18:40;5.10;;;4.67;;
11541;SDS011;5827;49.482;7.716;2023-05-08T00:20:41;5.80;;;5.30;;
11541;SDS011;5827;49.482;7.716;2023-05-08T00:22:43;6.00;;;5.10;;
11541;SDS011;5827;49.482;7.716;2023-05-08T00:24:44;6.57;;;4.90;;
11541;SDS011;5827;49.482;7.716;2023-05-08T00:26:46;5.90;;;5.27;;
11541;SDS011;5827;49.482;7.716;2023-05-08T00:28:49;5.67;;;5.17;;
11541;SDS011;5827;49.482;7.716;2023-05-08T00:30:50;5.50;;;4.90;;
11541;SDS011;5827;49.482;7.716;2023-05-08T00:32:52;5.30;;;4.70;;
11541;SDS011;5827;49.482;7.716;2023-05-08T00:34:54;5.40;;;4.90;;
11541;SDS011;5827;49.482;7.716;2023-05-08T00:36:55;4.97;;;4.53;;
11541;SDS011;5827;49.482;7.716;2023-05-08T00:38:57;5.13;;;4.63;;
11541;SDS011;5827;49.482;7.716;2023-05-08T00:40:59;5.57;;;5.07;;
11541;SDS011;5827;49.482;7.716;2023-05-08T00:43:00;5.47;;;4.87;;
11541;SDS011;5827;49.482;7.716;2023-05-08T00:45:04;7.13;;;5.03;;
11541;SDS011;5827;49.482;7.716;2023-05-08T00:47:06;5.90;;;5.30;;
11541;SDS011;5827;49.482;7.716;2023-05-08T00:49:08;6.57;;;5.33;;
11541;SDS011;5827;49.482;7.716;2023-05-08T00:51:13;5.43;;;5.03;;
11541;SDS011;5827;49.482;7.716;2023-05-08T00:53:15;6.20;;;5.60;;
11541;SDS011;5827;49.482;7.716;2023-05-08T00:55:17;6.00;;;5.50;;
11541;SDS011;5827;49.482;7.716;2023-05-08T00:57:19;6.80;;;5.63;;
11541;SDS011;5827;49.482;7.716;2023-05-08T00:59:22;5.90;;;5.40;;
11541;SDS011;5827;49.482;7.716;2023-05-08T01:01:27;5.57;;;5.07;;
11541;SDS011;5827;49.482;7.716;2023-05-08T01:03:29;5.93;;;5.43;;
11541;SDS011;5827;49.482;7.716;2023-05-08T01:05:32;6.20;;;5.60;;
11541;SDS011;5827;49.482;7.716;2023-05-08T01:07:34;7.43;;;5.87;;
11541;SDS011;5827;49.482;7.716;2023-05-08T01:09:35;7.00;;;6.40;;
11541;SDS011;5827;49.482;7.716;2023-05-08T01:11:38;6.40;;;5.80;;
11541;SDS011;5827;49.482;7.716;2023-05-08T01:13:51;6.97;;;6.20;;
11541;SDS011;5827;49.482;7.716;2023-05-08T01:16:04;7.13;;;6.17;;
11541;SDS011;5827;49.482;7.716;2023-05-08T01:18:12;7.53;;;6.83;;
11541;SDS011;5827;49.482;7.716;2023-05-08T01:20:21;10.20;;;8.33;;
11541;SDS011;5827;49.482;7.716;2023-05-08T01:22:46;12.10;;;10.00;;
11541;SDS011;5827;49.482;7.716;2023-05-08T01:25:15;13.30;;;10.23;;
11541;SDS011;5827;49.482;7.716;2023-05-08T01:30:13;12.63;;;11.30;;
11541;SDS011;5827;49.482;7.716;2023-05-08T01:32:41;12.33;;;11.13;;
11541;SDS011;5827;49.482;7.716;2023-05-08T01:34:49;13.47;;;12.17;;
11541;SDS011;5827;49.482;7.716;2023-05-08T01:36:59;13.33;;;11.73;;
11541;SDS011;5827;49.482;7.716;2023-05-08T01:39:04;13.10;;;11.73;;
11541;SDS011;5827;49.482;7.716;2023-05-08T01:41:15;14.37;;;12.20;;
11541;SDS011;5827;49.482;7.716;2023-05-08T01:43:18;13.63;;;12.33;;
11541;SDS011;5827;49.482;7.716;2023-05-08T01:45:28;14.20;;;12.40;;
11541;SDS011;5827;49.482;7.716;2023-05-08T01:47:36;13.97;;;12.50;;
11541;SDS011;5827;49.482;7.716;2023-05-08T01:49:40;14.57;;;13.07;;
11541;SDS011;5827;49.482;7.716;2023-05-08T01:51:46;10.20;;;9.30;;
11541;SDS011;5827;49.482;7.716;2023-05-08T01:53:54;9.93;;;9.03;;
11541;SDS011;5827;49.482;7.716;2023-05-08T01:56:00;9.83;;;8.63;;
11541;SDS011;5827;49.482;7.716;2023-05-08T01:58:07;11.30;;;9.50;;
11541;SDS011;5827;49.482;7.716;2023-05-08T02:00:11;11.43;;;10.30;;
11541;SDS011;5827;49.482;7.716;2023-05-08T02:02:17;11.53;;;10.47;;
11541;SDS011;5827;49.482;7.716;2023-05-08T02:04:20;9.63;;;8.73;;
11541;SDS011;5827;49.482;7.716;2023-05-08T02:06:24;11.00;;;9.90;;
11541;SDS011;5827;49.482;7.716;2023-05-08T02:08:28;10.20;;;9.20;;
11541;SDS011;5827;49.482;7.716;2023-05-08T02:10:31;10.07;;;9.07;;
11541;SDS011;5827;49.482;7.716;2023-05-08T02:12:33;9.23;;;8.43;;
11541;SDS011;5827;49.482;7.716;2023-05-08T02:14:37;9.70;;;8.70;;
11541;SDS011;5827;49.482;7.716;2023-05-08T02:16:42;10.53;;;9.13;;
11541;SDS011;5827;49.482;7.716;2023-05-08T02:18:46;11.97;;;10.77;;
11541;SDS011;5827;49.482;7.716;2023-05-08T02:20:51;14.13;;;12.60;;
11541;SDS011;5827;49.482;7.716;2023-05-08T02:22:56;14.37;;;12.87;;
11541;SDS011;5827;49.482;7.716;2023-05-08T02:24:59;12.57;;;10.37;;
11541;SDS011;5827;49.482;7.716;2023-05-08T02:27:01;12.13;;;9.67;;
11541;SDS011;5827;49.482;7.716;2023-05-08T02:29:04;10.63;;;9.63;;
11541;SDS011;5827;49.482;7.716;2023-05-08T02:31:06;10.33;;;9.17;;
11541;SDS011;5827;49.482;7.716;2023-05-08T02:33:09;10.70;;;9.53;;
11541;SDS011;5827;49.482;7.716;2023-05-08T02:35:13;11.53;;;9.43;;
11541;SDS011;5827;49.482;7.716;2023-05-08T02:37:17;10.57;;;9.33;;
11541;SDS011;5827;49.482;7.716;2023-05-08T02:39:23;14.70;;;11.80;;
11541;SDS011;5827;49.482;7.716;2023-05-08T02:41:27;12.70;;;11.40;;
11541;SDS011;5827;49.482;7.716;2023-05-08T02:43:30;14.37;;;12.87;;
11541;SDS011;5827;49.482;7.716;2023-05-08T02:45:42;15.47;;;12.80;;
11541;SDS011;5827;49.482;7.716;2023-05-08T02:47:50;16.10;;;14.50;;
11541;SDS011;5827;49.482;7.716;2023-05-08T02:49:59;16.43;;;13.67;;
11541;SDS011;5827;49.482;7.716;2023-05-08T02:52:07;14.60;;;13.10;;
11541;SDS011;5827;49.482;7.716;2023-05-08T02:54:14;15.53;;;13.90;;
11541;SDS011;5827;49.482;7.716;2023-05-08T02:56:24;16.87;;;13.67;;
11541;SDS011;5827;49.482;7.716;2023-05-08T02:58:33;14.57;;;13.13;;
11541;SDS011;5827;49.482;7.716;2023-05-08T03:00:41;16.63;;;14.87;;
11541;SDS011;5827;49.482;7.716;2023-05-08T03:02:48;17.50;;;15.20;;
11541;SDS011;5827;49.482;7.716;2023-05-08T03:04:55;16.87;;;14.73;;
11541;SDS011;5827;49.482;7.716;2023-05-08T03:07:00;16.00;;;14.47;;
11541;SDS011;5827;49.482;7.716;2023-05-08T03:09:02;16.33;;;13.70;;
11541;SDS011;5827;49.482;7.716;2023-05-08T03:11:07;12.00;;;10.10;;
11541;SDS011;5827;49.482;7.716;2023-05-08T03:13:12;10.50;;;9.40;;
11541;SDS011;5827;49.482;7.716;2023-05-08T03:15:18;9.40;;;8.50;;
11541;SDS011;5827;49.482;7.716;2023-05-08T03:17:25;9.90;;;8.90;;
11541;SDS011;5827;49.482;7.716;2023-05-08T03:19:33;10.07;;;9.13;;
11541;SDS011;5827;49.482;7.716;2023-05-08T03:21:36;12.73;;;9.67;;
11541;SDS011;5827;49.482;7.716;2023-05-08T03:23:39;11.83;;;10.57;;
11541;SDS011;5827;49.482;7.716;2023-05-08T03:25:42;13.83;;;11.37;;
11541;SDS011;5827;49.482;7.716;2023-05-08T03:27:45;11.17;;;9.97;;
11541;SDS011;5827;49.482;7.716;2023-05-08T03:29:50;13.17;;;11.43;;
11541;SDS011;5827;49.482;7.716;2023-05-08T03:31:53;12.80;;;11.33;;
11541;SDS011;5827;49.482;7.716;2023-05-08T03:33:56;12.20;;;10.97;;
11541;SDS011;5827;49.482;7.716;2023-05-08T03:35:58;13.40;;;11.33;;
11541;SDS011;5827;49.482;7.716;2023-05-08T03:37:59;12.17;;;10.80;;
11541;SDS011;5827;49.482;7.716;2023-05-08T03:40:02;13.37;;;11.33;;
11541;SDS011;5827;49.482;7.716;2023-05-08T03:42:03;11.60;;;10.50;;
11541;SDS011;5827;49.482;7.716;2023-05-08T03:44:05;11.77;;;10.57;;
11541;SDS011;5827;49.482;7.716;2023-05-08T03:46:09;12.53;;;10.90;;
11541;SDS011;5827;49.482;7.716;2023-05-08T03:48:12;11.47;;;10.33;;
11541;SDS011;5827;49.482;7.716;2023-05-08T03:50:14;14.07;;;10.73;;
11541;SDS011;5827;49.482;7.716;2023-05-08T03:52:16;11.33;;;10.17;;
11541;SDS011;5827;49.482;7.716;2023-05-08T03:54:18;11.70;;;10.60;;
11541;SDS011;5827;49.482;7.716;2023-05-08T03:56:24;11.53;;;10.27;;
11541;SDS011;5827;49.482;7.716;2023-05-08T03:58:27;11.03;;;9.77;;
11541;SDS011;5827;49.482;7.716;2023-05-08T04:00:36;11.93;;;10.80;;
11541;SDS011;5827;49.482;7.716;2023-05-08T04:02:45;12.53;;;9.90;;
11541;SDS011;5827;49.482;7.716;2023-05-08T04:04:59;13.30;;;10.13;;
11541;SDS011;5827;49.482;7.716;2023-05-08T04:07:06;12.80;;;10.60;;
11541;SDS011;5827;49.482;7.716;2023-05-08T04:09:12;11.33;;;10.17;;
11541;SDS011;5827;49.482;7.716;2023-05-08T04:11:20;11.30;;;10.07;;
11541;SDS011;5827;49.482;7.716;2023-05-08T04:13:30;12.13;;;9.97;;
11541;SDS011;5827;49.482;7.716;2023-05-08T04:15:37;12.00;;;10.80;;
11541;SDS011;5827;49.482;7.716;2023-05-08T04:17:47;11.30;;;10.07;;
11541;SDS011;5827;49.482;7.716;2023-05-08T04:19:50;10.87;;;9.77;;
11541;SDS011;5827;49.482;7.716;2023-05-08T04:22:04;11.43;;;10.30;;
11541;SDS011;5827;49.482;7.716;2023-05-08T04:24:07;11.43;;;10.20;;
11541;SDS011;5827;49.482;7.716;2023-05-08T04:26:12;11.30;;;9.90;;
11541;SDS011;5827;49.482;7.716;2023-05-08T04:28:16;13.47;;;11.20;;
11541;SDS011;5827;49.482;7.716;2023-05-08T04:30:19;11.37;;;10.27;;
11541;SDS011;5827;49.482;7.716;2023-05-08T04:32:21;12.63;;;11.40;;
11541;SDS011;5827;49.482;7.716;2023-05-08T04:34:24;11.80;;;10.63;;
11541;SDS011;5827;49.482;7.716;2023-05-08T04:36:26;12.30;;;11.20;;
11541;SDS011;5827;49.482;7.716;2023-05-08T04:38:30;12.93;;;11.63;;
11541;SDS011;5827;49.482;7.716;2023-05-08T04:40:36;12.83;;;11.53;;
11541;SDS011;5827;49.482;7.716;2023-05-08T04:42:38;12.23;;;11.00;;
11541;SDS011;5827;49.482;7.716;2023-05-08T04:44:41;12.50;;;11.30;;
11541;SDS011;5827;49.482;7.716;2023-05-08T04:46:43;12.60;;;11.40;;
11541;SDS011;5827;49.482;7.716;2023-05-08T04:48:44;12.97;;;11.67;;
11541;SDS011;5827;49.482;7.716;2023-05-08T04:50:47;13.07;;;11.10;;
11541;SDS011;5827;49.482;7.716;2023-05-08T04:52:49;13.27;;;11.97;;
11541;SDS011;5827;49.482;7.716;2023-05-08T04:54:50;12.60;;;11.23;;
11541;SDS011;5827;49.482;7.716;2023-05-08T04:56:52;12.47;;;11.23;;
11541;SDS011;5827;49.482;7.716;2023-05-08T04:58:53;12.30;;;11.20;;
11541;SDS011;5827;49.482;7.716;2023-05-08T05:00:55;11.80;;;10.70;;
11541;SDS011;5827;49.482;7.716;2023-05-08T05:02:56;12.70;;;11.50;;
11541;SDS011;5827;49.482;7.716;2023-05-08T05:04:58;14.10;;;12.03;;
11541;SDS011;5827;49.482;7.716;2023-05-08T05:07:01;12.83;;;11.63;;
11541;SDS011;5827;49.482;7.716;2023-05-08T05:09:03;14.23;;;12.93;;
11541;SDS011;5827;49.482;7.716;2023-05-08T05:11:05;12.83;;;11.63;;
11541;SDS011;5827;49.482;7.716;2023-05-08T05:13:06;15.07;;;11.80;;
11541;SDS011;5827;49.482;7.716;2023-05-08T05:15:08;13.33;;;12.00;;
11541;SDS011;5827;49.482;7.716;2023-05-08T05:17:10;13.50;;;12.20;;
11541;SDS011;5827;49.482;7.716;2023-05-08T05:19:12;13.70;;;12.27;;
11541;SDS011;5827;49.482;7.716;2023-05-08T05:21:14;13.53;;;12.23;;
11541;SDS011;5827;49.482;7.716;2023-05-08T05:23:16;12.73;;;11.43;;
11541;SDS011;5827;49.482;7.716;2023-05-08T05:25:18;12.97;;;11.77;;
11541;SDS011;5827;49.482;7.716;2023-05-08T05:27:20;14.43;;;12.17;;
11541;SDS011;5827;49.482;7.716;2023-05-08T05:29:21;13.50;;;12.30;;
11541;SDS011;5827;49.482;7.716;2023-05-08T05:31:23;14.60;;;13.20;;
11541;SDS011;5827;49.482;7.716;2023-05-08T05:33:24;15.13;;;13.20;;
11541;SDS011;5827;49.482;7.716;2023-05-08T05:35:26;15.30;;;13.73;;
11541;SDS011;5827;49.482;7.716;2023-05-08T05:37:27;15.13;;;13.30;;
11541;SDS011;5827;49.482;7.716;2023-05-08T05:39:30;14.83;;;13.33;;
11541;SDS011;5827;49.482;7.716;2023-05-08T05:41:32;14.13;;;12.77;;
11541;SDS011;5827;49.482;7.716;2023-05-08T05:43:35;15.40;;;13.80;;
11541;SDS011;5827;49.482;7.716;2023-05-08T05:45:36;14.47;;;12.97;;
11541;SDS011;5827;49.482;7.716;2023-05-08T05:47:42;14.60;;;12.53;;
11541;SDS011;5827;49.482;7.716;2023-05-08T05:49:44;15.07;;;13.57;;
11541;SDS011;5827;49.482;7.716;2023-05-08T05:51:46;14.77;;;13.37;;
11541;SDS011;5827;49.482;7.716;2023-05-08T05:53:47;15.90;;;12.70;;
11541;SDS011;5827;49.482;7.716;2023-05-08T05:55:50;16.00;;;14.33;;
11541;SDS011;5827;49.482;7.716;2023-05-08T05:57:52;17.53;;;14.23;;
11541;SDS011;5827;49.482;7.716;2023-05-08T05:59:53;15.90;;;14.30;;
11541;SDS011;5827;49.482;7.716;2023-05-08T06:01:55;16.80;;;14.90;;
11541;SDS011;5827;49.482;7.716;2023-05-08T06:03:56;16.40;;;14.80;;
11541;SDS011;5827;49.482;7.716;2023-05-08T06:05:58;17.80;;;16.00;;
11541;SDS011;5827;49.482;7.716;2023-05-08T06:07:59;16.73;;;15.00;;
11541;SDS011;5827;49.482;7.716;2023-05-08T06:10:01;18.67;;;16.53;;
11541;SDS011;5827;49.482;7.716;2023-05-08T06:12:04;18.17;;;16.30;;
11541;SDS011;5827;49.482;7.716;2023-05-08T06:14:07;17.90;;;15.97;;
11541;SDS011;5827;49.482;7.716;2023-05-08T06:16:08;19.30;;;16.17;;
11541;SDS011;5827;49.482;7.716;2023-05-08T06:18:11;18.97;;;16.80;;
11541;SDS011;5827;49.482;7.716;2023-05-08T06:20:12;20.80;;;18.53;;
11541;SDS011;5827;49.482;7.716;2023-05-08T06:22:14;23.87;;;20.00;;
11541;SDS011;5827;49.482;7.716;2023-05-08T06:24:16;22.83;;;20.37;;
11541;SDS011;5827;49.482;7.716;2023-05-08T06:26:18;26.57;;;20.03;;
11541;SDS011;5827;49.482;7.716;2023-05-08T06:28:21;23.47;;;20.97;;
11541;SDS011;5827;49.482;7.716;2023-05-08T06:30:24;28.47;;;21.33;;
11541;SDS011;5827;49.482;7.716;2023-05-08T06:32:26;22.73;;;19.47;;
11541;SDS011;5827;49.482;7.716;2023-05-08T06:34:27;24.07;;;19.60;;
11541;SDS011;5827;49.482;7.716;2023-05-08T06:36:29;23.27;;;18.90;;
11541;SDS011;5827;49.482;7.716;2023-05-08T06:38:30;22.17;;;18.60;;
11541;SDS011;5827;49.482;7.716;2023-05-08T06:40:32;18.83;;;16.83;;
11541;SDS011;5827;49.482;7.716;2023-05-08T06:42:34;21.30;;;18.13;;
11541;SDS011;5827;49.482;7.716;2023-05-08T06:44:36;22.50;;;18.63;;
11541;SDS011;5827;49.482;7.716;2023-05-08T06:46:39;25.60;;;21.63;;
11541;SDS011;5827;49.482;7.716;2023-05-08T06:48:41;25.67;;;22.07;;
11541;SDS011;5827;49.482;7.716;2023-05-08T06:50:42;27.37;;;22.63;;
11541;SDS011;5827;49.482;7.716;2023-05-08T06:52:44;28.20;;;22.17;;
11541;SDS011;5827;49.482;7.716;2023-05-08T06:54:45;25.33;;;22.43;;
11541;SDS011;5827;49.482;7.716;2023-05-08T06:56:47;24.27;;;21.53;;
11541;SDS011;5827;49.482;7.716;2023-05-08T06:58:48;25.10;;;20.30;;
11541;SDS011;5827;49.482;7.716;2023-05-08T07:00:51;23.73;;;20.17;;
11541;SDS011;5827;49.482;7.716;2023-05-08T07:02:53;21.00;;;18.80;;
11541;SDS011;5827;49.482;7.716;2023-05-08T07:04:54;21.53;;;19.23;;
11541;SDS011;5827;49.482;7.716;2023-05-08T07:06:56;23.87;;;19.70;;
11541;SDS011;5827;49.482;7.716;2023-05-08T07:08:57;22.83;;;18.93;;
11541;SDS011;5827;49.482;7.716;2023-05-08T07:10:59;21.60;;;18.87;;
11541;SDS011;5827;49.482;7.716;2023-05-08T07:13:00;22.93;;;19.83;;
11541;SDS011;5827;49.482;7.716;2023-05-08T07:15:02;21.63;;;19.27;;
11541;SDS011;5827;49.482;7.716;2023-05-08T07:17:05;21.17;;;19.00;;
11541;SDS011;5827;49.482;7.716;2023-05-08T07:19:07;22.70;;;19.43;;
11541;SDS011;5827;49.482;7.716;2023-05-08T07:21:08;25.47;;;21.77;;
11541;SDS011;5827;49.482;7.716;2023-05-08T07:23:10;26.10;;;21.70;;
11541;SDS011;5827;49.482;7.716;2023-05-08T07:25:11;24.40;;;21.50;;
11541;SDS011;5827;49.482;7.716;2023-05-08T07:27:13;25.50;;;22.57;;
11541;SDS011;5827;49.482;7.716;2023-05-08T07:29:14;27.30;;;23.23;;
11541;SDS011;5827;49.482;7.716;2023-05-08T07:31:16;27.80;;;24.27;;
11541;SDS011;5827;49.482;7.716;2023-05-08T07:33:19;30.23;;;24.63;;
11541;SDS011;5827;49.482;7.716;2023-05-08T07:35:20;30.00;;;24.77;;
11541;SDS011;5827;49.482;7.716;2023-05-08T07:37:22;29.23;;;23.77;;
11541;SDS011;5827;49.482;7.716;2023-05-08T07:39:23;34.67;;;25.77;;
11541;SDS011;5827;49.482;7.716;2023-05-08T07:41:25;28.83;;;23.83;;
11541;SDS011;5827;49.482;7.716;2023-05-08T07:43:26;31.23;;;25.20;;
11541;SDS011;5827;49.482;7.716;2023-05-08T07:45:28;29.73;;;24.73;;
11541;SDS011;5827;49.482;7.716;2023-05-08T07:47:29;30.90;;;24.87;;
11541;SDS011;5827;49.482;7.716;2023-05-08T07:49:32;27.90;;;23.73;;
11541;SDS011;5827;49.482;7.716;2023-05-08T07:51:34;28.20;;;23.67;;
11541;SDS011;5827;49.482;7.716;2023-05-08T07:53:36;28.83;;;23.30;;
11541;SDS011;5827;49.482;7.716;2023-05-08T07:55:37;32.27;;;23.03;;
11541;SDS011;5827;49.482;7.716;2023-05-08T07:57:39;29.87;;;23.33;;
11541;SDS011;5827;49.482;7.716;2023-05-08T07:59:41;27.77;;;22.70;;
11541;SDS011;5827;49.482;7.716;2023-05-08T08:01:43;29.53;;;22.70;;
11541;SDS011;5827;49.482;7.716;2023-05-08T08:03:46;32.03;;;23.63;;
11541;SDS011;5827;49.482;7.716;2023-05-08T08:05:49;27.23;;;23.63;;
11541;SDS011;5827;49.482;7.716;2023-05-08T08:07:50;28.17;;;22.57;;
11541;SDS011;5827;49.482;7.716;2023-05-08T08:09:52;26.07;;;22.63;;
11541;SDS011;5827;49.482;7.716;2023-05-08T08:11:53;27.90;;;23.17;;
11541;SDS011;5827;49.482;7.716;2023-05-08T08:13:55;27.70;;;22.87;;
11541;SDS011;5827;49.482;7.716;2023-05-08T08:15:56;29.23;;;22.77;;
11541;SDS011;5827;49.482;7.716;2023-05-08T08:17:59;31.33;;;23.87;;
11541;SDS011;5827;49.482;7.716;2023-05-08T08:20:00;24.97;;;22.33;;
11541;SDS011;5827;49.482;7.716;2023-05-08T08:22:03;27.63;;;22.00;;
11541;SDS011;5827;49.482;7.716;2023-05-08T08:24:06;28.37;;;22.47;;
11541;SDS011;5827;49.482;7.716;2023-05-08T08:26:07;29.17;;;23.47;;
11541;SDS011;5827;49.482;7.716;2023-05-08T08:28:09;30.33;;;23.07;;
11541;SDS011;5827;49.482;7.716;2023-05-08T08:30:10;26.77;;;21.93;;
11541;SDS011;5827;49.482;7.716;2023-05-08T08:32:12;29.37;;;23.13;;
11541;SDS011;5827;49.482;7.716;2023-05-08T08:34:14;30.30;;;23.87;;
11541;SDS011;5827;49.482;7.716;2023-05-08T08:36:15;29.27;;;22.50;;
11541;SDS011;5827;49.482;7.716;2023-05-08T08:38:18;30.37;;;23.00;;
11541;SDS011;5827;49.482;7.716;2023-05-08T08:40:19;27.20;;;22.30;;
11541;SDS011;5827;49.482;7.716;2023-05-08T08:42:21;28.13;;;21.80;;
11541;SDS011;5827;49.482;7.716;2023-05-08T08:44:23;28.53;;;21.77;;
11541;SDS011;5827;49.482;7.716;2023-05-08T08:46:25;26.97;;;21.53;;
11541;SDS011;5827;49.482;7.716;2023-05-08T08:48:28;24.83;;;20.37;;
11541;SDS011;5827;49.482;7.716;2023-05-08T08:50:31;24.97;;;20.37;;
11541;SDS011;5827;49.482;7.716;2023-05-08T08:52:36;25.33;;;20.40;;
11541;SDS011;5827;49.482;7.716;2023-05-08T08:54:42;24.60;;;19.40;;
11541;SDS011;5827;49.482;7.716;2023-05-08T08:56:47;22.50;;;17.87;;
11541;SDS011;5827;49.482;7.716;2023-05-08T08:58:51;23.03;;;19.07;;
11541;SDS011;5827;49.482;7.716;2023-05-08T09:00:58;23.20;;;18.73;;
11541;SDS011;5827;49.482;7.716;2023-05-08T09:03:03;23.40;;;19.27;;
11541;SDS011;5827;49.482;7.716;2023-05-08T09:05:07;25.73;;;21.60;;
11541;SDS011;5827;49.482;7.716;2023-05-08T09:07:09;23.53;;;19.80;;
11541;SDS011;5827;49.482;7.716;2023-05-08T09:09:12;23.27;;;19.77;;
11541;SDS011;5827;49.482;7.716;2023-05-08T09:11:14;23.63;;;20.13;;
11541;SDS011;5827;49.482;7.716;2023-05-08T09:13:16;22.30;;;19.43;;
11541;SDS011;5827;49.482;7.716;2023-05-08T09:15:18;24.37;;;19.47;;
11541;SDS011;5827;49.482;7.716;2023-05-08T09:17:20;22.73;;;18.87;;
11541;SDS011;5827;49.482;7.716;2023-05-08T09:19:22;23.20;;;19.40;;
11541;SDS011;5827;49.482;7.716;2023-05-08T09:21:24;24.40;;;19.37;;
11541;SDS011;5827;49.482;7.716;2023-05-08T09:23:27;20.97;;;18.77;;
11541;SDS011;5827;49.482;7.716;2023-05-08T09:27:47;24.37;;;18.03;;
11541;SDS011;5827;49.482;7.716;2023-05-08T09:29:58;22.83;;;18.97;;
11541;SDS011;5827;49.482;7.716;2023-05-08T09:32:01;21.77;;;18.03;;
11541;SDS011;5827;49.482;7.716;2023-05-08T09:34:03;27.10;;;20.40;;
11541;SDS011;5827;49.482;7.716;2023-05-08T09:36:05;24.80;;;20.37;;
11541;SDS011;5827;49.482;7.716;2023-05-08T09:38:32;23.23;;;19.37;;
11541;SDS011;5827;49.482;7.716;2023-05-08T09:40:35;22.40;;;18.47;;
11541;SDS011;5827;49.482;7.716;2023-05-08T09:42:36;23.13;;;18.70;;
11541;SDS011;5827;49.482;7.716;2023-05-08T09:44:44;20.83;;;18.40;;
11541;SDS011;5827;49.482;7.716;2023-05-08T09:46:46;21.50;;;18.77;;
11541;SDS011;5827;49.482;7.716;2023-05-08T09:48:49;20.97;;;17.20;;
11541;SDS011;5827;49.482;7.716;2023-05-08T09:50:55;23.00;;;17.77;;
11541;SDS011;5827;49.482;7.716;2023-05-08T09:53:05;20.53;;;17.80;;
11541;SDS011;5827;49.482;7.716;2023-05-08T09:55:08;18.93;;;16.63;;
11541;SDS011;5827;49.482;7.716;2023-05-08T09:57:10;18.97;;;16.97;;
11541;SDS011;5827;49.482;7.716;2023-05-08T09:59:23;20.57;;;16.97;;
11541;SDS011;5827;49.482;7.716;2023-05-08T10:01:28;18.40;;;16.40;;
11541;SDS011;5827;49.482;7.716;2023-05-08T10:03:47;19.47;;;16.27;;
11541;SDS011;5827;49.482;7.716;2023-05-08T10:05:49;18.73;;;15.97;;
11541;SDS011;5827;49.482;7.716;2023-05-08T10:07:51;18.77;;;16.87;;
11541;SDS011;5827;49.482;7.716;2023-05-08T10:09:57;18.67;;;16.17;;
11541;SDS011;5827;49.482;7.716;2023-05-08T10:11:59;20.00;;;16.43;;
11541;SDS011;5827;49.482;7.716;2023-05-08T10:14:01;19.37;;;17.10;;
11541;SDS011;5827;49.482;7.716;2023-05-08T10:16:03;18.57;;;16.43;;
11541;SDS011;5827;49.482;7.716;2023-05-08T10:18:07;17.73;;;15.90;;
11541;SDS011;5827;49.482;7.716;2023-05-08T10:20:10;17.10;;;15.30;;
11541;SDS011;5827;49.482;7.716;2023-05-08T10:22:14;16.67;;;14.97;;
11541;SDS011;5827;49.482;7.716;2023-05-08T10:24:17;16.20;;;14.60;;
11541;SDS011;5827;49.482;7.716;2023-05-08T10:26:22;16.63;;;14.87;;
11541;SDS011;5827;49.482;7.716;2023-05-08T10:28:28;15.87;;;14.27;;
11541;SDS011;5827;49.482;7.716;2023-05-08T10:30:33;16.30;;;14.30;;
11541;SDS011;5827;49.482;7.716;2023-05-08T10:32:41;16.20;;;14.50;;
11541;SDS011;5827;49.482;7.716;2023-05-08T10:34:45;17.50;;;14.80;;
11541;SDS011;5827;49.482;7.716;2023-05-08T10:36:49;14.93;;;13.40;;
11541;SDS011;5827;49.482;7.716;2023-05-08T10:38:52;16.07;;;14.40;;
11541;SDS011;5827;49.482;7.716;2023-05-08T10:40:54;16.90;;;15.10;;
11541;SDS011;5827;49.482;7.716;2023-05-08T10:43:01;14.93;;;13.43;;
11541;SDS011;5827;49.482;7.716;2023-05-08T10:45:04;15.43;;;13.63;;
11541;SDS011;5827;49.482;7.716;2023-05-08T10:47:07;14.27;;;12.63;;
11541;SDS011;5827;49.482;7.716;2023-05-08T10:49:17;14.30;;;12.90;;
11541;SDS011;5827;49.482;7.716;2023-05-08T10:51:31;14.50;;;13.00;;
11541;SDS011;5827;49.482;7.716;2023-05-08T10:53:39;13.73;;;12.17;;
11541;SDS011;5827;49.482;7.716;2023-05-08T10:55:46;14.73;;;12.80;;
11541;SDS011;5827;49.482;7.716;2023-05-08T10:58:04;14.10;;;12.70;;
11541;SDS011;5827;49.482;7.716;2023-05-08T11:00:09;13.33;;;11.93;;
11541;SDS011;5827;49.482;7.716;2023-05-08T11:02:11;13.03;;;11.70;;
11541;SDS011;5827;49.482;7.716;2023-05-08T11:04:18;13.50;;;11.87;;
11541;SDS011;5827;49.482;7.716;2023-05-08T11:08:48;13.43;;;12.07;;
11541;SDS011;5827;49.482;7.716;2023-05-08T11:10:59;13.20;;;11.90;;
11541;SDS011;5827;49.482;7.716;2023-05-08T11:13:05;11.83;;;10.73;;
11541;SDS011;5827;49.482;7.716;2023-05-08T11:15:08;11.23;;;10.17;;
11541;SDS011;5827;49.482;7.716;2023-05-08T11:17:10;11.87;;;10.67;;
11541;SDS011;5827;49.482;7.716;2023-05-08T11:19:15;12.17;;;10.83;;
11541;SDS011;5827;49.482;7.716;2023-05-08T11:21:19;14.43;;;12.87;;
11541;SDS011;5827;49.482;7.716;2023-05-08T11:23:23;13.70;;;12.30;;
11541;SDS011;5827;49.482;7.716;2023-05-08T11:25:40;12.20;;;11.10;;
11541;SDS011;5827;49.482;7.716;2023-05-08T11:30:16;13.60;;;11.43;;
11541;SDS011;5827;49.482;7.716;2023-05-08T11:35:14;11.27;;;10.20;;
11541;SDS011;5827;49.482;7.716;2023-05-08T11:42:47;12.60;;;11.03;;
11541;SDS011;5827;49.482;7.716;2023-05-08T11:44:57;12.53;;;11.33;;
11541;SDS011;5827;49.482;7.716;2023-05-08T11:47:03;11.67;;;10.53;;
11541;SDS011;5827;49.482;7.716;2023-05-08T11:49:09;11.20;;;10.00;;
11541;SDS011;5827;49.482;7.716;2023-05-08T11:51:11;10.33;;;9.33;;
11541;SDS011;5827;49.482;7.716;2023-05-08T11:53:13;11.00;;;9.87;;
11541;SDS011;5827;49.482;7.716;2023-05-08T11:55:15;10.13;;;9.20;;
11541;SDS011;5827;49.482;7.716;2023-05-08T11:57:19;10.33;;;9.30;;
11541;SDS011;5827;49.482;7.716;2023-05-08T11:59:21;10.47;;;9.23;;
11541;SDS011;5827;49.482;7.716;2023-05-08T12:01:22;10.57;;;9.57;;
11541;SDS011;5827;49.482;7.716;2023-05-08T12:03:24;10.33;;;9.43;;
11541;SDS011;5827;49.482;7.716;2023-05-08T12:05:25;9.60;;;8.70;;
11541;SDS011;5827;49.482;7.716;2023-05-08T12:07:27;10.10;;;9.20;;
11541;SDS011;5827;49.482;7.716;2023-05-08T12:09:29;9.83;;;8.80;;
11541;SDS011;5827;49.482;7.716;2023-05-08T12:11:31;10.53;;;9.13;;
11541;SDS011;5827;49.482;7.716;2023-05-08T12:13:34;10.90;;;8.90;;
11541;SDS011;5827;49.482;7.716;2023-05-08T12:15:35;9.77;;;8.80;;
11541;SDS011;5827;49.482;7.716;2023-05-08T12:17:38;8.90;;;8.00;;
11541;SDS011;5827;49.482;7.716;2023-05-08T12:19:40;10.10;;;8.83;;
11541;SDS011;5827;49.482;7.716;2023-05-08T12:21:44;9.60;;;8.63;;
11541;SDS011;5827;49.482;7.716;2023-05-08T12:23:46;10.20;;;7.93;;
11541;SDS011;5827;49.482;7.716;2023-05-08T12:25:50;9.57;;;8.40;;
11541;SDS011;5827;49.482;7.716;2023-05-08T12:27:52;9.10;;;8.30;;
11541;SDS011;5827;49.482;7.716;2023-05-08T12:29:57;9.73;;;8.70;;
11541;SDS011;5827;49.482;7.716;2023-05-08T12:31:58;9.10;;;8.30;;
11541;SDS011;5827;49.482;7.716;2023-05-08T12:34:00;9.83;;;8.93;;
11541;SDS011;5827;49.482;7.716;2023-05-08T12:36:02;9.30;;;8.50;;
11541;SDS011;5827;49.482;7.716;2023-05-08T12:38:06;9.57;;;8.67;;